Time,TemperatureF,DewpointF,PressureIn,WindDirection,WindDirectionDegrees,WindSpeedMPH,WindSpeedGustMPH,Humidity,HourlyPrecipIn,Conditions,Clouds,dailyrainin,SoftwareType,DateUTC
2013-03-01 00:00:00,30.4,20.7,29.33,NNE,22,2.5,6.3,67,0.00,,,0.00,WUHU21623XXSP,2013-03-01 05:00:00,
2013-03-01 00:06:00,30.4,20.7,29.33,NNE,22,2.5,5.8,67,0.00,,,0.00,WUHU21623XXSP,2013-03-01 05:06:00,
2013-03-01 00:10:00,30.4,20.7,29.33,NNE,22,2.5,2.5,67,0.00,,,0.00,WUHU21623XXSP,2013-03-01 05:10:00,
2013-03-01 00:15:00,30.4,20.7,29.33,NNW,337,4.9,4.9,67,0.00,,,0.00,WUHU21623XXSP,2013-03-01 05:15:00,
2013-03-01 00:20:00,30.0,20.3,29.33,WNW,292,1.8,4.9,67,0.00,,,0.00,WUHU21623XXSP,2013-03-01 05:20:00,
2013-03-01 00:25:00,30.4,20.7,29.33,North,0,0.0,3.4,67,0.00,,,0.00,WUHU21623XXSP,2013-03-01 05:25:00,
2013-03-01 00:30:00,29.8,20.2,29.33,North,0,4.3,9.2,67,0.00,,,0.00,WUHU21623XXSP,2013-03-01 05:30:00,
2013-03-01 00:35:00,29.8,20.2,29.33,NW,315,5.4,9.2,67,0.00,,,0.00,WUHU21623XXSP,2013-03-01 05:35:00,
2013-03-01 00:40:00,29.7,20.4,29.33,North,0,6.9,8.5,68,0.00,,,0.00,WUHU21623XXSP,2013-03-01 05:40:00,
2013-03-01 00:45:00,29.5,20.2,29.33,North,0,0.0,7.8,68,0.00,,,0.00,WUHU21623XXSP,2013-03-01 05:45:00,
2013-03-01 00:50:00,29.3,20.4,29.33,NNE,22,8.1,8.1,69,0.00,,,0.00,WUHU21623XXSP,2013-03-01 05:50:00,
2013-03-01 00:55:00,29.3,20.4,29.33,North,0,4.0,8.1,69,0.00,,,0.00,WUHU21623XXSP,2013-03-01 05:55:00,
2013-03-01 01:00:00,29.3,20.4,29.33,North,0,4.7,4.7,69,0.00,,,0.00,WUHU21623XXSP,2013-03-01 06:00:00,
2013-03-01 01:05:00,29.3,20.4,29.33,North,0,4.7,4.7,69,0.00,,,0.00,WUHU21623XXSP,2013-03-01 06:05:00,
2013-03-01 01:10:00,29.3,20.4,29.33,North,0,4.7,4.7,69,0.00,,,0.00,WUHU21623XXSP,2013-03-01 06:10:00,
2013-03-01 01:15:00,29.7,21.1,29.34,North,0,6.5,6.5,70,0.00,,,0.00,WUHU21623XXSP,2013-03-01 06:15:00,
2013-03-01 01:20:00,29.7,21.4,29.34,NNW,337,6.5,6.5,71,0.00,,,0.00,WUHU21623XXSP,2013-03-01 06:20:00,
2013-03-01 01:25:00,29.7,21.4,29.34,NNW,337,8.9,8.9,71,0.00,,,0.00,WUHU21623XXSP,2013-03-01 06:25:00,
2013-03-01 01:30:00,29.7,21.4,29.34,WNW,292,6.0,8.9,71,0.00,,,0.00,WUHU21623XXSP,2013-03-01 06:30:00,
2013-03-01 01:35:00,29.5,20.9,29.34,North,0,0.4,6.3,70,0.00,,,0.00,WUHU21623XXSP,2013-03-01 06:35:00,
2013-03-01 01:40:00,29.3,20.8,29.34,North,0,5.6,6.3,70,0.00,,,0.00,WUHU21623XXSP,2013-03-01 06:40:00,
2013-03-01 01:45:00,29.3,20.8,29.34,NNE,22,4.7,5.6,70,0.00,,,0.00,WUHU21623XXSP,2013-03-01 06:45:00,
2013-03-01 01:50:00,29.3,20.8,29.34,NNE,22,4.9,8.9,70,0.00,,,0.00,WUHU21623XXSP,2013-03-01 06:50:00,
2013-03-01 01:55:00,29.3,20.8,29.34,NNE,22,7.6,8.9,70,0.00,,,0.00,WUHU21623XXSP,2013-03-01 06:55:00,
2013-03-01 02:00:00,29.3,20.8,29.34,North,0,6.0,7.6,70,0.00,,,0.00,WUHU21623XXSP,2013-03-01 07:00:00,
2013-03-01 02:05:00,29.3,20.8,29.34,North,0,6.0,7.4,70,0.00,,,0.00,WUHU21623XXSP,2013-03-01 07:05:00,
2013-03-01 02:10:00,29.3,20.8,29.34,North,0,6.0,6.0,70,0.00,,,0.00,WUHU21623XXSP,2013-03-01 07:10:00,
2013-03-01 02:15:00,29.3,20.4,29.34,North,0,8.1,8.1,69,0.00,,,0.00,WUHU21623XXSP,2013-03-01 07:15:00,
2013-03-01 02:20:00,29.1,20.2,29.34,NNW,337,3.1,8.1,69,0.00,,,0.00,WUHU21623XXSP,2013-03-01 07:20:00,
2013-03-01 02:25:00,29.3,20.0,29.34,NNE,22,5.1,5.1,68,0.00,,,0.00,WUHU21623XXSP,2013-03-01 07:25:00,
2013-03-01 02:30:00,29.1,19.9,29.34,NNE,22,4.0,6.5,68,0.00,,,0.00,WUHU21623XXSP,2013-03-01 07:30:00,
2013-03-01 02:35:00,29.1,19.9,29.34,NNE,22,6.5,7.6,68,0.00,,,0.00,WUHU21623XXSP,2013-03-01 07:35:00,
2013-03-01 02:40:00,29.1,19.5,29.34,North,0,10.5,10.5,67,0.00,,,0.00,WUHU21623XXSP,2013-03-01 07:40:00,
2013-03-01 02:45:00,29.1,19.5,29.34,NNE,22,8.5,10.5,67,0.00,,,0.00,WUHU21623XXSP,2013-03-01 07:45:00,
2013-03-01 02:50:00,29.1,19.5,29.35,North,0,5.6,8.7,67,0.00,,,0.00,WUHU21623XXSP,2013-03-01 07:50:00,
2013-03-01 02:55:00,29.1,19.5,29.34,NNE,22,0.0,8.7,67,0.00,,,0.00,WUHU21623XXSP,2013-03-01 07:55:00,
2013-03-01 03:00:00,29.3,19.7,29.35,NNE,22,5.4,5.4,67,0.00,,,0.00,WUHU21623XXSP,2013-03-01 08:00:00,
2013-03-01 03:05:00,29.3,19.7,29.35,NNE,22,5.4,5.4,67,0.00,,,0.00,WUHU21623XXSP,2013-03-01 08:05:00,
2013-03-01 03:10:00,29.3,19.7,29.35,NNE,22,5.4,5.4,67,0.00,,,0.00,WUHU21623XXSP,2013-03-01 08:10:00,
2013-03-01 03:15:00,29.1,19.1,29.34,North,0,0.0,5.4,66,0.00,,,0.00,WUHU21623XXSP,2013-03-01 08:15:00,
2013-03-01 03:20:00,29.1,19.1,29.34,NNE,22,0.7,5.4,66,0.00,,,0.00,WUHU21623XXSP,2013-03-01 08:20:00,
2013-03-01 03:25:00,29.1,19.1,29.35,NNW,337,6.0,6.0,66,0.00,,,0.00,WUHU21623XXSP,2013-03-01 08:25:00,
2013-03-01 03:30:00,29.1,19.1,29.35,North,0,0.0,6.3,66,0.00,,,0.00,WUHU21623XXSP,2013-03-01 08:30:00,
2013-03-01 03:35:00,28.9,19.0,29.34,North,0,7.6,7.6,66,0.00,,,0.00,WUHU21623XXSP,2013-03-01 08:35:00,
2013-03-01 03:40:00,28.9,19.0,29.34,NNE,22,7.4,7.6,66,0.00,,,0.00,WUHU21623XXSP,2013-03-01 08:40:00,
2013-03-01 03:45:00,28.8,18.8,29.35,NNW,337,4.9,7.4,66,0.00,,,0.00,WUHU21623XXSP,2013-03-01 08:45:00,
2013-03-01 03:50:00,28.8,18.8,29.35,NNW,337,5.4,6.7,66,0.00,,,0.00,WUHU21623XXSP,2013-03-01 08:50:00,
2013-03-01 03:55:00,28.6,18.7,29.35,NNE,22,0.0,7.6,66,0.00,,,0.00,WUHU21623XXSP,2013-03-01 08:55:00,
2013-03-01 04:00:00,28.6,18.3,29.35,North,0,4.5,7.6,65,0.00,,,0.00,WUHU21623XXSP,2013-03-01 09:00:00,
2013-03-01 04:05:00,28.6,18.3,29.35,North,0,4.5,4.5,65,0.00,,,0.00,WUHU21623XXSP,2013-03-01 09:05:00,
2013-03-01 04:10:00,28.6,18.3,29.35,North,0,4.5,4.5,65,0.00,,,0.00,WUHU21623XXSP,2013-03-01 09:10:00,
2013-03-01 04:15:00,28.6,18.3,29.35,North,0,7.8,7.8,65,0.00,,,0.00,WUHU21623XXSP,2013-03-01 09:15:00,
2013-03-01 04:20:00,28.6,18.3,29.35,NNE,22,4.7,7.8,65,0.00,,,0.00,WUHU21623XXSP,2013-03-01 09:20:00,
2013-03-01 04:25:00,28.6,17.9,29.36,North,0,10.5,10.5,64,0.00,,,0.00,WUHU21623XXSP,2013-03-01 09:25:00,
2013-03-01 04:30:00,28.4,17.8,29.35,North,0,9.6,10.5,64,0.00,,,0.00,WUHU21623XXSP,2013-03-01 09:30:00,
2013-03-01 04:35:00,28.2,17.2,29.36,NE,45,3.4,9.6,63,0.00,,,0.00,WUHU21623XXSP,2013-03-01 09:35:00,
2013-03-01 04:40:00,28.0,17.1,29.36,NE,45,6.0,8.7,63,0.00,,,0.00,WUHU21623XXSP,2013-03-01 09:40:00,
2013-03-01 04:45:00,28.2,17.2,29.35,NNE,22,6.3,8.7,63,0.00,,,0.00,WUHU21623XXSP,2013-03-01 09:45:00,
2013-03-01 04:50:00,28.2,17.2,29.36,NNE,22,1.1,6.3,63,0.00,,,0.00,WUHU21623XXSP,2013-03-01 09:50:00,
2013-03-01 04:55:00,28.2,17.2,29.36,NE,45,6.5,6.9,63,0.00,,,0.00,WUHU21623XXSP,2013-03-01 09:55:00,
2013-03-01 05:00:00,28.2,17.2,29.36,NNE,22,3.1,6.9,63,0.00,,,0.00,WUHU21623XXSP,2013-03-01 10:00:00,
2013-03-01 05:05:00,28.2,17.2,29.36,NNE,22,3.1,3.1,63,0.00,,,0.00,WUHU21623XXSP,2013-03-01 10:05:00,
2013-03-01 05:10:00,28.2,17.2,29.36,NNE,22,3.1,3.1,63,0.00,,,0.00,WUHU21623XXSP,2013-03-01 10:10:00,
2013-03-01 05:15:00,28.0,17.1,29.36,North,0,7.4,7.4,63,0.00,,,0.00,WUHU21623XXSP,2013-03-01 10:15:00,
2013-03-01 05:20:00,28.0,16.7,29.36,North,0,10.7,10.7,62,0.00,,,0.00,WUHU21623XXSP,2013-03-01 10:20:00,
2013-03-01 05:25:00,27.9,16.5,29.36,NNE,22,5.8,13.4,62,0.00,,,0.00,WUHU21623XXSP,2013-03-01 10:25:00,
2013-03-01 05:30:00,27.9,16.2,29.36,NNW,337,9.8,13.4,61,0.00,,,0.00,WUHU21623XXSP,2013-03-01 10:30:00,
2013-03-01 05:35:00,27.7,16.0,29.37,NNE,22,3.4,9.8,61,0.00,,,0.00,WUHU21623XXSP,2013-03-01 10:35:00,
2013-03-01 05:40:00,27.5,15.8,29.37,NNE,22,0.0,6.0,61,0.00,,,0.00,WUHU21623XXSP,2013-03-01 10:40:00,
2013-03-01 05:45:00,27.7,16.0,29.37,NNE,22,0.0,6.0,61,0.00,,,0.00,WUHU21623XXSP,2013-03-01 10:45:00,
2013-03-01 05:50:00,27.5,15.8,29.37,North,0,6.3,6.9,61,0.00,,,0.00,WUHU21623XXSP,2013-03-01 10:50:00,
2013-03-01 05:55:00,27.5,15.4,29.37,North,0,6.7,6.9,60,0.00,,,0.00,WUHU21623XXSP,2013-03-01 10:55:00,
2013-03-01 06:00:00,27.7,15.6,29.37,North,0,7.8,7.8,60,0.00,,,0.00,WUHU21623XXSP,2013-03-01 11:00:00,
2013-03-01 06:05:00,27.7,15.6,29.37,North,0,7.8,7.8,60,0.00,,,0.00,WUHU21623XXSP,2013-03-01 11:05:00,
2013-03-01 06:10:00,27.7,15.6,29.37,North,0,7.8,7.8,60,0.00,,,0.00,WUHU21623XXSP,2013-03-01 11:10:00,
2013-03-01 06:15:00,27.9,15.8,29.37,NNE,22,2.5,7.8,60,0.00,,,0.00,WUHU21623XXSP,2013-03-01 11:15:00,
2013-03-01 06:20:00,27.7,15.6,29.37,North,0,1.1,8.7,60,0.00,,,0.00,WUHU21623XXSP,2013-03-01 11:20:00,
2013-03-01 06:25:00,27.7,15.6,29.37,North,0,8.3,8.7,60,0.00,,,0.00,WUHU21623XXSP,2013-03-01 11:25:00,
2013-03-01 06:30:00,27.5,15.4,29.37,North,0,6.3,8.3,60,0.00,,,0.00,WUHU21623XXSP,2013-03-01 11:30:00,
2013-03-01 06:35:00,27.5,15.4,29.37,NNE,22,0.0,6.3,60,0.00,,,0.00,WUHU21623XXSP,2013-03-01 11:35:00,
2013-03-01 06:40:00,27.3,15.3,29.37,North,0,7.8,7.8,60,0.00,,,0.00,WUHU21623XXSP,2013-03-01 11:40:00,
2013-03-01 06:45:00,27.5,15.4,29.37,North,0,12.3,12.3,60,0.00,,,0.00,WUHU21623XXSP,2013-03-01 11:45:00,
2013-03-01 06:50:00,27.1,15.1,29.37,NW,315,4.7,12.3,60,0.00,,,0.00,WUHU21623XXSP,2013-03-01 11:50:00,
2013-03-01 06:55:00,27.1,15.1,29.37,North,0,4.3,7.4,60,0.00,,,0.00,WUHU21623XXSP,2013-03-01 11:55:00,
2013-03-01 07:00:00,27.1,15.4,29.38,NW,315,6.3,6.3,61,0.00,,,0.00,WUHU21623XXSP,2013-03-01 12:00:00,
2013-03-01 07:05:00,27.0,15.3,29.38,NNE,22,6.0,6.7,61,0.00,,,0.00,WUHU21623XXSP,2013-03-01 12:05:00,
2013-03-01 07:10:00,27.0,15.3,29.38,North,0,7.6,7.6,61,0.00,,,0.00,WUHU21623XXSP,2013-03-01 12:10:00,
2013-03-01 07:15:00,27.0,15.3,29.37,NNE,22,5.8,7.6,61,0.00,,,0.00,WUHU21623XXSP,2013-03-01 12:15:00,
2013-03-01 07:20:00,27.0,15.3,29.38,NE,45,0.2,5.8,61,0.00,,,0.00,WUHU21623XXSP,2013-03-01 12:20:00,
2013-03-01 07:25:00,27.0,15.3,29.38,NE,45,0.0,5.1,61,0.00,,,0.00,WUHU21623XXSP,2013-03-01 12:25:00,
2013-03-01 07:30:00,27.0,15.3,29.38,North,0,6.7,6.7,61,0.00,,,0.00,WUHU21623XXSP,2013-03-01 12:30:00,
2013-03-01 07:35:00,27.0,15.3,29.38,NNE,22,5.4,7.2,61,0.00,,,0.00,WUHU21623XXSP,2013-03-01 12:35:00,
2013-03-01 07:40:00,27.0,15.3,29.39,NNW,337,3.6,7.2,61,0.00,,,0.00,WUHU21623XXSP,2013-03-01 12:40:00,
2013-03-01 07:45:00,26.8,15.1,29.39,North,0,0.0,4.7,61,0.00,,,0.00,WUHU21623XXSP,2013-03-01 12:45:00,
2013-03-01 07:50:00,26.6,14.9,29.39,NNW,337,3.1,6.5,61,0.00,,,0.00,WUHU21623XXSP,2013-03-01 12:50:00,
2013-03-01 07:55:00,26.8,15.1,29.39,NNE,22,5.4,9.6,61,0.00,,,0.00,WUHU21623XXSP,2013-03-01 12:55:00,
2013-03-01 08:00:00,26.4,14.7,29.40,NNW,337,5.4,9.6,61,0.00,,,0.00,WUHU21623XXSP,2013-03-01 13:00:00,
2013-03-01 08:05:00,26.2,14.6,29.40,North,0,6.7,6.7,61,0.00,,,0.00,WUHU21623XXSP,2013-03-01 13:05:00,
2013-03-01 08:10:00,26.4,14.7,29.40,NNE,22,11.2,11.2,61,0.00,,,0.00,WUHU21623XXSP,2013-03-01 13:10:00,
2013-03-01 08:15:00,26.2,14.6,29.41,NNE,22,9.8,11.2,61,0.00,,,0.00,WUHU21623XXSP,2013-03-01 13:15:00,
2013-03-01 08:20:00,26.4,14.7,29.41,North,0,11.2,11.2,61,0.00,,,0.00,WUHU21623XXSP,2013-03-01 13:20:00,
2013-03-01 08:25:00,26.4,14.7,29.41,NNE,22,1.3,11.2,61,0.00,,,0.00,WUHU21623XXSP,2013-03-01 13:25:00,
2013-03-01 08:30:00,26.4,14.7,29.41,North,0,7.4,7.8,61,0.00,,,0.00,WUHU21623XXSP,2013-03-01 13:30:00,
2013-03-01 08:35:00,26.4,15.1,29.41,North,0,4.3,7.8,62,0.00,,,0.00,WUHU21623XXSP,2013-03-01 13:35:00,
2013-03-01 08:40:00,26.4,15.1,29.41,North,0,11.9,11.9,62,0.00,,,0.00,WUHU21623XXSP,2013-03-01 13:40:00,
2013-03-01 08:45:00,26.4,15.1,29.41,North,0,0.0,11.9,62,0.00,,,0.00,WUHU21623XXSP,2013-03-01 13:45:00,
2013-03-01 08:50:00,26.6,15.3,29.41,North,0,6.9,6.9,62,0.00,,,0.00,WUHU21623XXSP,2013-03-01 13:50:00,
2013-03-01 08:55:00,26.6,15.3,29.41,NNE,22,5.4,9.2,62,0.00,,,0.00,WUHU21623XXSP,2013-03-01 13:55:00,
2013-03-01 09:00:00,26.6,15.3,29.41,NNE,22,7.6,9.2,62,0.00,,,0.00,WUHU21623XXSP,2013-03-01 14:00:00,
2013-03-01 09:05:00,26.2,14.9,29.42,North,0,8.9,8.9,62,0.00,,,0.00,WUHU21623XXSP,2013-03-01 14:05:00,
2013-03-01 09:10:00,26.4,15.1,29.42,NNE,22,5.1,8.9,62,0.00,,,0.00,WUHU21623XXSP,2013-03-01 14:10:00,
2013-03-01 09:15:00,26.2,14.9,29.41,North,0,0.0,6.5,62,0.00,,,0.00,WUHU21623XXSP,2013-03-01 14:15:00,
2013-03-01 09:20:00,26.8,15.4,29.42,NNE,22,5.8,7.2,62,0.00,,,0.00,WUHU21623XXSP,2013-03-01 14:20:00,
2013-03-01 09:25:00,26.4,15.1,29.42,NNE,22,0.0,7.2,62,0.00,,,0.00,WUHU21623XXSP,2013-03-01 14:25:00,
2013-03-01 09:30:00,26.8,15.4,29.42,NNW,337,8.7,8.7,62,0.00,,,0.00,WUHU21623XXSP,2013-03-01 14:30:00,
2013-03-01 09:35:00,27.0,15.6,29.42,North,0,0.0,8.7,62,0.00,,,0.00,WUHU21623XXSP,2013-03-01 14:35:00,
2013-03-01 09:40:00,27.0,15.6,29.42,North,0,0.2,6.5,62,0.00,,,0.00,WUHU21623XXSP,2013-03-01 14:40:00,
2013-03-01 09:45:00,27.0,15.3,29.41,North,0,5.4,6.5,61,0.00,,,0.00,WUHU21623XXSP,2013-03-01 14:45:00,
2013-03-01 09:50:00,27.3,15.6,29.42,ENE,67,3.4,10.3,61,0.00,,,0.00,WUHU21623XXSP,2013-03-01 14:50:00,
2013-03-01 09:55:00,27.3,15.6,29.42,North,0,6.9,10.3,61,0.00,,,0.00,WUHU21623XXSP,2013-03-01 14:55:00,
2013-03-01 10:00:00,27.3,15.6,29.42,NE,45,8.1,8.1,61,0.00,,,0.00,WUHU21623XXSP,2013-03-01 15:00:00,
2013-03-01 10:05:00,27.3,15.6,29.42,NW,315,5.6,8.1,61,0.00,,,0.00,WUHU21623XXSP,2013-03-01 15:05:00,
2013-03-01 10:10:00,27.3,15.6,29.42,North,0,8.5,8.5,61,0.00,,,0.00,WUHU21623XXSP,2013-03-01 15:10:00,
2013-03-01 10:15:00,27.5,15.8,29.42,NNE,22,4.7,8.5,61,0.00,,,0.00,WUHU21623XXSP,2013-03-01 15:15:00,
2013-03-01 10:20:00,27.0,15.3,29.42,NNE,22,5.4,10.3,61,0.00,,,0.00,WUHU21623XXSP,2013-03-01 15:20:00,
2013-03-01 10:25:00,27.0,14.9,29.42,NNE,22,6.9,10.3,60,0.00,,,0.00,WUHU21623XXSP,2013-03-01 15:25:00,
2013-03-01 10:30:00,27.0,14.9,29.42,NNE,22,5.6,6.9,60,0.00,,,0.00,WUHU21623XXSP,2013-03-01 15:30:00,
2013-03-01 10:35:00,27.0,14.9,29.43,North,0,10.7,10.7,60,0.00,,,0.00,WUHU21623XXSP,2013-03-01 15:35:00,
2013-03-01 10:40:00,27.1,15.1,29.43,NNE,22,6.7,10.7,60,0.00,,,0.00,WUHU21623XXSP,2013-03-01 15:40:00,
2013-03-01 10:45:00,27.3,15.3,29.42,North,0,8.9,8.9,60,0.00,,,0.00,WUHU21623XXSP,2013-03-01 15:45:00,
2013-03-01 10:50:00,27.9,15.8,29.42,NNE,22,8.5,8.9,60,0.00,,,0.00,WUHU21623XXSP,2013-03-01 15:50:00,
2013-03-01 10:55:00,27.9,15.8,29.42,North,0,0.0,8.5,60,0.00,,,0.00,WUHU21623XXSP,2013-03-01 15:55:00,
2013-03-01 11:00:00,28.0,16.0,29.43,North,0,7.6,8.1,60,0.00,,,0.00,WUHU21623XXSP,2013-03-01 16:00:00,
2013-03-01 11:05:00,28.0,15.6,29.43,North,0,5.8,8.1,59,0.00,,,0.00,WUHU21623XXSP,2013-03-01 16:05:00,
2013-03-01 11:10:00,28.0,15.6,29.43,NW,315,0.0,5.8,59,0.00,,,0.00,WUHU21623XXSP,2013-03-01 16:10:00,
2013-03-01 11:15:00,28.0,15.6,29.43,NW,315,5.6,10.5,59,0.00,,,0.00,WUHU21623XXSP,2013-03-01 16:15:00,
2013-03-01 11:20:00,28.0,16.0,29.43,WNW,292,0.9,10.5,60,0.00,,,0.00,WUHU21623XXSP,2013-03-01 16:20:00,
2013-03-01 11:25:00,27.9,15.8,29.43,NNW,337,5.6,6.9,60,0.00,,,0.00,WUHU21623XXSP,2013-03-01 16:25:00,
2013-03-01 11:30:00,28.0,16.0,29.43,NNE,22,11.2,11.2,60,0.00,,,0.00,WUHU21623XXSP,2013-03-01 16:30:00,
2013-03-01 11:35:00,27.9,15.4,29.43,NNE,22,0.0,12.8,59,0.00,,,0.00,WUHU21623XXSP,2013-03-01 16:35:00,
2013-03-01 11:40:00,28.0,15.6,29.44,NNE,22,8.3,12.8,59,0.00,,,0.00,WUHU21623XXSP,2013-03-01 16:40:00,
2013-03-01 11:45:00,28.0,15.6,29.43,NNE,22,11.0,11.0,59,0.00,,,0.00,WUHU21623XXSP,2013-03-01 16:45:00,
2013-03-01 11:50:00,28.0,15.6,29.43,North,0,4.7,11.0,59,0.00,,,0.00,WUHU21623XXSP,2013-03-01 16:50:00,
2013-03-01 11:55:00,28.0,15.6,29.43,North,0,5.6,6.7,59,0.00,,,0.00,WUHU21623XXSP,2013-03-01 16:55:00,
2013-03-01 12:00:00,27.9,15.4,29.44,NNW,337,5.6,14.1,59,0.00,,,0.00,WUHU21623XXSP,2013-03-01 17:00:00,
2013-03-01 12:05:00,27.7,15.2,29.43,NNE,22,3.4,14.1,59,0.00,,,0.00,WUHU21623XXSP,2013-03-01 17:05:00,
2013-03-01 12:10:00,27.7,15.6,29.44,NNE,22,0.0,6.7,60,0.00,,,0.00,WUHU21623XXSP,2013-03-01 17:10:00,
2013-03-01 12:15:00,27.9,15.8,29.44,North,0,7.8,7.8,60,0.00,,,0.00,WUHU21623XXSP,2013-03-01 17:15:00,
2013-03-01 12:20:00,28.0,16.0,29.44,NNW,337,4.5,7.8,60,0.00,,,0.00,WUHU21623XXSP,2013-03-01 17:20:00,
2013-03-01 12:25:00,28.2,16.2,29.43,NNE,22,9.8,9.8,60,0.00,,,0.00,WUHU21623XXSP,2013-03-01 17:25:00,
2013-03-01 12:30:00,28.6,16.5,29.44,NNE,22,5.1,9.8,60,0.00,,,0.00,WUHU21623XXSP,2013-03-01 17:30:00,
2013-03-01 12:35:00,28.6,16.5,29.43,NNW,337,7.6,8.1,60,0.00,,,0.00,WUHU21623XXSP,2013-03-01 17:35:00,
2013-03-01 12:40:00,28.6,16.1,29.43,North,0,6.3,7.6,59,0.00,,,0.00,WUHU21623XXSP,2013-03-01 17:40:00,
2013-03-01 12:45:00,28.6,16.1,29.43,North,0,5.8,6.3,59,0.00,,,0.00,WUHU21623XXSP,2013-03-01 17:45:00,
2013-03-01 12:50:00,28.6,16.1,29.43,North,0,4.5,5.8,59,0.00,,,0.00,WUHU21623XXSP,2013-03-01 17:50:00,
2013-03-01 12:55:00,28.8,16.3,29.43,NNE,22,2.9,5.1,59,0.00,,,0.00,WUHU21623XXSP,2013-03-01 17:55:00,
2013-03-01 13:00:00,29.1,16.6,29.43,North,0,1.1,4.9,59,0.00,,,0.00,WUHU21623XXSP,2013-03-01 18:00:00,
2013-03-01 13:05:00,29.3,16.7,29.43,NNE,22,6.9,6.9,59,0.00,,,0.00,WUHU21623XXSP,2013-03-01 18:05:00,
2013-03-01 13:10:00,29.3,16.7,29.43,NE,45,6.3,6.9,59,0.00,,,0.00,WUHU21623XXSP,2013-03-01 18:10:00,
2013-03-01 13:15:00,29.3,16.3,29.42,NNW,337,7.2,8.9,58,0.00,,,0.00,WUHU21623XXSP,2013-03-01 18:15:00,
2013-03-01 13:20:00,29.1,16.2,29.42,North,0,8.5,8.9,58,0.00,,,0.00,WUHU21623XXSP,2013-03-01 18:20:00,
2013-03-01 13:25:00,29.3,15.9,29.42,NNW,337,6.7,8.7,57,0.00,,,0.00,WUHU21623XXSP,2013-03-01 18:25:00,
2013-03-01 13:30:00,29.1,16.2,29.42,NNE,22,2.2,6.7,58,0.00,,,0.00,WUHU21623XXSP,2013-03-01 18:30:00,
2013-03-01 13:35:00,29.1,16.2,29.42,North,0,4.3,4.9,58,0.00,,,0.00,WUHU21623XXSP,2013-03-01 18:35:00,
2013-03-01 13:40:00,28.9,15.6,29.42,NW,315,5.8,5.8,57,0.00,,,0.00,WUHU21623XXSP,2013-03-01 18:40:00,
2013-03-01 13:45:00,28.8,15.4,29.42,NNW,337,0.0,5.8,57,0.00,,,0.00,WUHU21623XXSP,2013-03-01 18:45:00,
2013-03-01 13:50:00,28.9,16.0,29.42,NW,315,0.9,5.6,58,0.00,,,0.00,WUHU21623XXSP,2013-03-01 18:50:00,
2013-03-01 13:55:00,28.8,15.8,29.42,WNW,292,0.0,5.8,58,0.00,,,0.00,WUHU21623XXSP,2013-03-01 18:55:00,
2013-03-01 14:00:00,28.8,15.8,29.42,North,0,4.7,5.8,58,0.00,,,0.00,WUHU21623XXSP,2013-03-01 19:00:00,
2013-03-01 14:05:00,28.8,15.8,29.42,North,0,0.0,4.7,58,0.00,,,0.00,WUHU21623XXSP,2013-03-01 19:05:00,
2013-03-01 14:10:00,28.8,15.8,29.41,NNW,337,0.0,5.1,58,0.00,,,0.00,WUHU21623XXSP,2013-03-01 19:10:00,
2013-03-01 14:15:00,28.9,16.0,29.41,North,0,8.1,8.1,58,0.00,,,0.00,WUHU21623XXSP,2013-03-01 19:15:00,
2013-03-01 14:20:00,28.9,16.4,29.41,North,0,3.1,8.1,59,0.00,,,0.00,WUHU21623XXSP,2013-03-01 19:20:00,
2013-03-01 14:25:00,28.9,16.4,29.41,WNW,292,5.6,5.6,59,0.00,,,0.00,WUHU21623XXSP,2013-03-01 19:25:00,
2013-03-01 14:30:00,28.9,16.4,29.41,North,0,4.7,5.6,59,0.00,,,0.00,WUHU21623XXSP,2013-03-01 19:30:00,
2013-03-01 14:35:00,28.9,16.0,29.41,North,0,5.6,5.6,58,0.00,,,0.00,WUHU21623XXSP,2013-03-01 19:35:00,
2013-03-01 14:40:00,28.8,16.3,29.41,NNW,337,5.6,5.6,59,0.00,,,0.00,WUHU21623XXSP,2013-03-01 19:40:00,
2013-03-01 14:45:00,28.9,16.4,29.41,WNW,292,4.7,5.6,59,0.00,,,0.00,WUHU21623XXSP,2013-03-01 19:45:00,
2013-03-01 14:50:00,28.9,16.4,29.41,NW,315,4.3,4.7,59,0.00,,,0.00,WUHU21623XXSP,2013-03-01 19:50:00,
2013-03-01 14:55:00,28.6,15.7,29.41,NNW,337,0.0,9.2,58,0.00,,,0.00,WUHU21623XXSP,2013-03-01 19:55:00,
2013-03-01 15:00:00,28.2,15.3,29.41,NNW,337,5.8,9.2,58,0.00,,,0.00,WUHU21623XXSP,2013-03-01 20:00:00,
2013-03-01 15:05:00,27.9,15.0,29.41,WNW,292,5.8,5.8,58,0.00,,,0.00,WUHU21623XXSP,2013-03-01 20:05:00,
2013-03-01 15:10:00,27.7,15.2,29.41,North,0,0.0,6.7,59,0.00,,,0.00,WUHU21623XXSP,2013-03-01 20:10:00,
2013-03-01 15:15:00,27.5,15.0,29.41,NNE,22,2.7,6.9,59,0.00,,,0.00,WUHU21623XXSP,2013-03-01 20:15:00,
2013-03-01 15:20:00,27.7,15.6,29.41,North,0,6.5,6.9,60,0.00,,,0.00,WUHU21623XXSP,2013-03-01 20:20:00,
2013-03-01 15:25:00,27.7,15.6,29.41,NNW,337,0.9,6.5,60,0.00,,,0.00,WUHU21623XXSP,2013-03-01 20:25:00,
2013-03-01 15:30:00,27.5,15.4,29.41,WNW,292,4.9,6.7,60,0.00,,,0.00,WUHU21623XXSP,2013-03-01 20:30:00,
2013-03-01 15:35:00,27.5,15.4,29.41,NNW,337,6.9,6.9,60,0.00,,,0.00,WUHU21623XXSP,2013-03-01 20:35:00,
2013-03-01 15:40:00,27.5,15.4,29.41,NNE,22,1.3,7.2,60,0.00,,,0.00,WUHU21623XXSP,2013-03-01 20:40:00,
2013-03-01 15:45:00,27.5,15.4,29.41,North,0,0.0,7.4,60,0.00,,,0.00,WUHU21623XXSP,2013-03-01 20:45:00,
2013-03-01 15:50:00,27.5,15.4,29.41,North,0,0.0,7.4,60,0.00,,,0.00,WUHU21623XXSP,2013-03-01 20:50:00,
2013-03-01 15:55:00,27.5,15.8,29.41,North,0,6.5,6.5,61,0.00,,,0.00,WUHU21623XXSP,2013-03-01 20:55:00,
2013-03-01 16:00:00,27.5,15.8,29.41,WNW,292,0.0,6.5,61,0.00,,,0.00,WUHU21623XXSP,2013-03-01 21:00:00,
2013-03-01 16:05:00,27.5,15.8,29.42,NNW,337,0.0,7.2,61,0.00,,,0.00,WUHU21623XXSP,2013-03-01 21:05:00,
2013-03-01 16:10:00,27.5,15.8,29.42,WNW,292,1.1,7.2,61,0.00,,,0.00,WUHU21623XXSP,2013-03-01 21:10:00,
2013-03-01 16:15:00,27.3,15.6,29.42,North,0,3.4,6.3,61,0.00,,,0.00,WUHU21623XXSP,2013-03-01 21:15:00,
2013-03-01 16:20:00,27.1,15.4,29.42,NW,315,0.0,6.3,61,0.00,,,0.00,WUHU21623XXSP,2013-03-01 21:20:00,
2013-03-01 16:25:00,27.3,15.6,29.42,North,0,0.0,1.3,61,0.00,,,0.00,WUHU21623XXSP,2013-03-01 21:25:00,
2013-03-01 16:30:00,27.3,15.6,29.42,WNW,292,5.1,5.8,61,0.00,,,0.00,WUHU21623XXSP,2013-03-01 21:30:00,
2013-03-01 16:35:00,27.1,15.4,29.42,NNW,337,4.3,5.8,61,0.00,,,0.00,WUHU21623XXSP,2013-03-01 21:35:00,
2013-03-01 16:40:00,27.1,15.4,29.42,North,0,0.0,4.3,61,0.00,,,0.00,WUHU21623XXSP,2013-03-01 21:40:00,
2013-03-01 16:45:00,27.3,15.6,29.42,WNW,292,6.0,6.0,61,0.00,,,0.00,WUHU21623XXSP,2013-03-01 21:45:00,
2013-03-01 16:50:00,27.1,15.4,29.43,NNW,337,0.0,6.0,61,0.00,,,0.00,WUHU21623XXSP,2013-03-01 21:50:00,
2013-03-01 16:55:00,27.0,15.3,29.43,NNE,22,5.6,7.2,61,0.00,,,0.00,WUHU21623XXSP,2013-03-01 21:55:00,
2013-03-01 17:00:00,27.0,15.3,29.43,NW,315,4.9,7.2,61,0.00,,,0.00,WUHU21623XXSP,2013-03-01 22:00:00,
2013-03-01 17:05:00,27.0,15.6,29.43,North,0,2.7,6.5,62,0.00,,,0.00,WUHU21623XXSP,2013-03-01 22:05:00,
2013-03-01 17:10:00,27.0,15.6,29.43,North,0,8.1,8.1,62,0.00,,,0.00,WUHU21623XXSP,2013-03-01 22:10:00,
2013-03-01 17:15:00,26.8,15.4,29.43,North,0,4.9,8.1,62,0.00,,,0.00,WUHU21623XXSP,2013-03-01 22:15:00,
2013-03-01 17:20:00,26.8,15.4,29.44,NW,315,8.5,8.5,62,0.00,,,0.00,WUHU21623XXSP,2013-03-01 22:20:00,
2013-03-01 17:25:00,26.8,15.4,29.44,NNE,22,0.7,8.5,62,0.00,,,0.00,WUHU21623XXSP,2013-03-01 22:25:00,
2013-03-01 17:30:00,26.8,15.4,29.44,North,0,6.5,7.6,62,0.00,,,0.00,WUHU21623XXSP,2013-03-01 22:30:00,
2013-03-01 17:35:00,26.8,15.4,29.44,North,0,8.5,11.6,62,0.00,,,0.00,WUHU21623XXSP,2013-03-01 22:35:00,
2013-03-01 17:40:00,26.8,15.4,29.44,North,0,2.0,11.6,62,0.00,,,0.00,WUHU21623XXSP,2013-03-01 22:40:00,
2013-03-01 17:45:00,26.6,15.3,29.44,NW,315,4.5,9.4,62,0.00,,,0.00,WUHU21623XXSP,2013-03-01 22:45:00,
2013-03-01 17:50:00,26.2,14.9,29.44,NE,45,0.0,9.4,62,0.00,,,0.00,WUHU21623XXSP,2013-03-01 22:50:00,
2013-03-01 17:55:00,26.2,14.6,29.44,NNE,22,0.0,7.6,61,0.00,,,0.00,WUHU21623XXSP,2013-03-01 22:55:00,
2013-03-01 18:00:00,26.2,14.6,29.45,NE,45,4.0,7.6,61,0.00,,,0.00,WUHU21623XXSP,2013-03-01 23:00:00,
2013-03-01 18:05:00,26.4,14.7,29.45,North,0,3.8,5.1,61,0.00,,,0.00,WUHU21623XXSP,2013-03-01 23:05:00,
2013-03-01 18:10:00,26.4,14.7,29.44,North,0,6.0,6.0,61,0.00,,,0.00,WUHU21623XXSP,2013-03-01 23:10:00,
2013-03-01 18:15:00,26.4,14.7,29.45,North,0,8.5,8.5,61,0.00,,,0.00,WUHU21623XXSP,2013-03-01 23:15:00,
2013-03-01 18:20:00,26.4,14.7,29.45,NNE,22,3.6,8.5,61,0.00,,,0.00,WUHU21623XXSP,2013-03-01 23:20:00,
2013-03-01 18:25:00,26.6,14.9,29.45,NNW,337,0.0,3.6,61,0.00,,,0.00,WUHU21623XXSP,2013-03-01 23:25:00,
2013-03-01 18:30:00,26.4,14.7,29.46,North,0,8.3,8.3,61,0.00,,,0.00,WUHU21623XXSP,2013-03-01 23:30:00,
2013-03-01 18:35:00,26.4,14.4,29.45,North,0,7.2,8.3,60,0.00,,,0.00,WUHU21623XXSP,2013-03-01 23:35:00,
2013-03-01 18:40:00,26.2,14.2,29.46,North,0,6.9,10.3,60,0.00,,,0.00,WUHU21623XXSP,2013-03-01 23:40:00,
2013-03-01 18:45:00,26.1,14.1,29.46,NNE,22,1.1,10.3,60,0.00,,,0.00,WUHU21623XXSP,2013-03-01 23:45:00,
2013-03-01 18:50:00,26.1,14.1,29.46,North,0,1.6,6.3,60,0.00,,,0.00,WUHU21623XXSP,2013-03-01 23:50:00,
2013-03-01 18:55:00,26.1,14.1,29.46,NNW,337,0.0,1.6,60,0.00,,,0.00,WUHU21623XXSP,2013-03-01 23:55:00,
2013-03-01 19:00:00,26.2,14.6,29.46,NNW,337,6.7,6.7,61,0.00,,,0.00,WUHU21623XXSP,2013-03-02 00:00:00,
2013-03-01 19:05:00,26.2,14.6,29.46,North,0,6.9,7.6,61,0.00,,,0.00,WUHU21623XXSP,2013-03-02 00:05:00,
2013-03-01 19:10:00,26.2,14.6,29.46,NNE,22,6.0,7.6,61,0.00,,,0.00,WUHU21623XXSP,2013-03-02 00:10:00,
2013-03-01 19:15:00,26.1,14.4,29.46,North,0,6.0,6.7,61,0.00,,,0.00,WUHU21623XXSP,2013-03-02 00:15:00,
2013-03-01 19:20:00,26.1,14.4,29.46,NNE,22,8.3,10.1,61,0.00,,,0.00,WUHU21623XXSP,2013-03-02 00:20:00,
2013-03-01 19:25:00,25.9,14.2,29.46,NE,45,4.7,10.1,61,0.00,,,0.00,WUHU21623XXSP,2013-03-02 00:25:00,
2013-03-01 19:30:00,25.9,14.2,29.46,North,0,1.3,8.3,61,0.00,,,0.00,WUHU21623XXSP,2013-03-02 00:30:00,
2013-03-01 19:35:00,25.9,14.2,29.46,North,0,0.0,5.1,61,0.00,,,0.00,WUHU21623XXSP,2013-03-02 00:35:00,
2013-03-01 19:40:00,25.9,14.2,29.46,NNE,22,8.1,8.9,61,0.00,,,0.00,WUHU21623XXSP,2013-03-02 00:40:00,
2013-03-01 19:45:00,25.9,14.6,29.47,North,0,5.8,8.9,62,0.00,,,0.00,WUHU21623XXSP,2013-03-02 00:45:00,
2013-03-01 19:50:00,25.7,14.4,29.46,NNW,337,5.4,11.6,62,0.00,,,0.00,WUHU21623XXSP,2013-03-02 00:50:00,
2013-03-01 19:55:00,25.7,14.4,29.47,NNE,22,9.8,11.6,62,0.00,,,0.00,WUHU21623XXSP,2013-03-02 00:55:00,
2013-03-01 20:00:00,25.5,14.3,29.46,NNE,22,0.0,9.8,62,0.00,,,0.00,WUHU21623XXSP,2013-03-02 01:00:00,
2013-03-01 20:05:00,25.5,14.3,29.46,North,0,6.5,8.1,62,0.00,,,0.00,WUHU21623XXSP,2013-03-02 01:05:00,
2013-03-01 20:10:00,25.7,14.4,29.46,NNW,337,5.8,9.2,62,0.00,,,0.00,WUHU21623XXSP,2013-03-02 01:10:00,
2013-03-01 20:15:00,25.7,14.4,29.46,WNW,292,4.7,9.2,62,0.00,,,0.00,WUHU21623XXSP,2013-03-02 01:15:00,
2013-03-01 20:20:00,25.7,14.4,29.46,NNE,22,0.0,8.5,62,0.00,,,0.00,WUHU21623XXSP,2013-03-02 01:20:00,
2013-03-01 20:25:00,25.7,14.4,29.47,North,0,8.3,8.3,62,0.00,,,0.00,WUHU21623XXSP,2013-03-02 01:25:00,
2013-03-01 20:30:00,25.7,14.4,29.46,North,0,0.0,8.3,62,0.00,,,0.00,WUHU21623XXSP,2013-03-02 01:30:00,
2013-03-01 20:35:00,25.7,14.8,29.46,NNW,337,7.6,7.6,63,0.00,,,0.00,WUHU21623XXSP,2013-03-02 01:35:00,
2013-03-01 20:40:00,25.9,14.9,29.46,NNW,337,10.3,10.3,63,0.00,,,0.00,WUHU21623XXSP,2013-03-02 01:40:00,
2013-03-01 20:45:00,25.9,14.9,29.46,NW,315,8.3,10.3,63,0.00,,,0.00,WUHU21623XXSP,2013-03-02 01:45:00,
2013-03-01 20:50:00,25.7,14.8,29.47,North,0,8.7,8.7,63,0.00,,,0.00,WUHU21623XXSP,2013-03-02 01:50:00,
2013-03-01 20:55:00,25.7,14.4,29.47,North,0,8.9,8.9,62,0.00,,,0.00,WUHU21623XXSP,2013-03-02 01:55:00,
2013-03-01 21:00:00,25.5,14.3,29.47,NNE,22,5.8,8.9,62,0.00,,,0.00,WUHU21623XXSP,2013-03-02 02:00:00,
2013-03-01 21:05:00,25.7,14.8,29.47,North,0,4.0,8.1,63,0.00,,,0.00,WUHU21623XXSP,2013-03-02 02:05:00,
2013-03-01 21:10:00,25.5,14.6,29.47,NNW,337,1.8,13.9,63,0.00,,,0.00,WUHU21623XXSP,2013-03-02 02:10:00,
2013-03-01 21:15:00,25.7,14.8,29.47,NNE,22,5.1,13.9,63,0.00,,,0.00,WUHU21623XXSP,2013-03-02 02:15:00,
2013-03-01 21:20:00,25.5,14.6,29.47,NNE,22,4.3,9.8,63,0.00,,,0.00,WUHU21623XXSP,2013-03-02 02:20:00,
2013-03-01 21:25:00,25.5,14.3,29.47,NE,45,4.9,6.5,62,0.00,,,0.00,WUHU21623XXSP,2013-03-02 02:25:00,
2013-03-01 21:30:00,25.7,14.8,29.47,North,0,9.4,9.4,63,0.00,,,0.00,WUHU21623XXSP,2013-03-02 02:30:00,
2013-03-01 21:35:00,25.5,14.6,29.47,NNE,22,4.5,9.4,63,0.00,,,0.00,WUHU21623XXSP,2013-03-02 02:35:00,
2013-03-01 21:40:00,25.5,14.3,29.47,NNW,337,12.3,12.3,62,0.00,,,0.00,WUHU21623XXSP,2013-03-02 02:40:00,
2013-03-01 21:45:00,25.2,13.9,29.47,NNW,337,5.4,12.3,62,0.00,,,0.00,WUHU21623XXSP,2013-03-02 02:45:00,
2013-03-01 21:50:00,25.3,14.1,29.47,NNW,337,0.2,8.5,62,0.00,,,0.00,WUHU21623XXSP,2013-03-02 02:50:00,
2013-03-01 21:55:00,25.3,14.1,29.47,North,0,5.1,8.3,62,0.00,,,0.00,WUHU21623XXSP,2013-03-02 02:55:00,
2013-03-01 22:00:00,25.3,14.1,29.47,NW,315,0.0,8.3,62,0.00,,,0.00,WUHU21623XXSP,2013-03-02 03:00:00,
2013-03-01 22:05:00,25.3,14.1,29.47,NNW,337,0.0,7.4,62,0.00,,,0.00,WUHU21623XXSP,2013-03-02 03:05:00,
2013-03-01 22:10:00,25.3,14.1,29.47,NNE,22,3.8,7.4,62,0.00,,,0.00,WUHU21623XXSP,2013-03-02 03:10:00,
2013-03-01 22:15:00,25.3,14.1,29.47,NNE,22,4.3,6.3,62,0.00,,,0.00,WUHU21623XXSP,2013-03-02 03:15:00,
2013-03-01 22:20:00,25.3,14.1,29.47,NNW,337,0.0,4.7,62,0.00,,,0.00,WUHU21623XXSP,2013-03-02 03:20:00,
2013-03-01 22:25:00,25.5,14.3,29.47,NNW,337,0.0,4.9,62,0.00,,,0.00,WUHU21623XXSP,2013-03-02 03:25:00,
2013-03-01 22:30:00,25.5,14.3,29.46,NNW,337,0.0,4.9,62,0.00,,,0.00,WUHU21623XXSP,2013-03-02 03:30:00,
2013-03-01 22:35:00,25.5,14.3,29.47,NNW,337,0.2,5.6,62,0.00,,,0.00,WUHU21623XXSP,2013-03-02 03:35:00,
2013-03-01 22:40:00,25.5,13.9,29.46,NNE,22,0.0,5.6,61,0.00,,,0.00,WUHU21623XXSP,2013-03-02 03:40:00,
2013-03-01 22:45:00,25.5,13.9,29.46,NNW,337,0.0,2.0,61,0.00,,,0.00,WUHU21623XXSP,2013-03-02 03:45:00,
2013-03-01 22:50:00,25.5,13.9,29.46,WNW,292,0.0,5.4,61,0.00,,,0.00,WUHU21623XXSP,2013-03-02 03:50:00,
2013-03-01 22:55:00,25.5,13.9,29.46,NNW,337,0.0,5.4,61,0.00,,,0.00,WUHU21623XXSP,2013-03-02 03:55:00,
2013-03-01 23:00:00,25.7,14.1,29.46,NW,315,1.3,1.3,61,0.00,,,0.00,WUHU21623XXSP,2013-03-02 04:00:00,
2013-03-01 23:05:00,25.9,14.6,29.46,NW,315,0.0,1.3,62,0.00,,,0.00,WUHU21623XXSP,2013-03-02 04:05:00,
2013-03-01 23:10:00,26.1,14.4,29.46,North,0,0.0,6.5,61,0.00,,,0.00,WUHU21623XXSP,2013-03-02 04:10:00,
2013-03-01 23:15:00,25.9,14.2,29.46,NW,315,0.0,0.0,61,0.00,,,0.00,WUHU21623XXSP,2013-03-02 04:15:00,
2013-03-01 23:20:00,25.9,14.2,29.45,North,0,2.9,2.9,61,0.00,,,0.00,WUHU21623XXSP,2013-03-02 04:20:00,
2013-03-01 23:25:00,25.9,14.2,29.46,WNW,292,2.7,11.9,61,0.00,,,0.00,WUHU21623XXSP,2013-03-02 04:25:00,
2013-03-01 23:30:00,25.7,14.1,29.45,West,270,5.4,11.9,61,0.00,,,0.00,WUHU21623XXSP,2013-03-02 04:30:00,
2013-03-01 23:35:00,25.7,14.1,29.45,North,0,0.0,8.1,61,0.00,,,0.00,WUHU21623XXSP,2013-03-02 04:35:00,
2013-03-01 23:40:00,25.7,14.1,29.45,North,0,7.2,8.1,61,0.00,,,0.00,WUHU21623XXSP,2013-03-02 04:40:00,
2013-03-01 23:45:00,25.7,14.1,29.44,WNW,292,5.4,7.2,61,0.00,,,0.00,WUHU21623XXSP,2013-03-02 04:45:00,
2013-03-01 23:50:00,25.7,14.1,29.44,NNW,337,1.3,5.6,61,0.00,,,0.00,WUHU21623XXSP,2013-03-02 04:50:00,
2013-03-01 23:55:00,25.7,14.1,29.44,North,0,0.0,6.5,61,0.00,,,0.00,WUHU21623XXSP,2013-03-02 04:55:00,